Terminal Aerodrome Forecast
Issued by NWS

Home | Current Version | Previous Version | Text Only | Print | Product List | Glossary On
Versions: 1 2 3 4 5 6 7 8 9 10 11 12 13
000
FTUS46 KOTX 280536
TAFSFF
TAF
KSFF 280536Z 2806/2906 22006KT P6SM SCT070 BKN100 BKN200
     FM281200 19007KT P6SM BKN120 BKN200
     FM281700 22008G15KT P6SM SCT050 SCT100 BKN180
     FM290200 VRB03KT P6SM SCT040 BKN150=

USA.gov is the U.S. government's official web portal to all federal, state and local government web resources and services.